Kelly Trader — 3FDQ3 — position and weather

sailwx.info

Track history (hours):
 
Tides and Currents Weather Stations Pressure Air Temp Water Temp Dewpoint Dewpoint Depression Visibility Wind Speed Wind Dir Waves Ship Positions

Kelly Trader

Last reported at 2018-Jun-24 15:00 UTC. Time now 2018-Jun-24 15:09 UTC.
Position N 09°23' W 079°55'.

Length 96 m; draft 4.2 m.

Type: Tanker. MMSI: 373194000.

Date/timePositionNaut miles runAvg speedWind from/ knotsBaromVisibWave heightAir tempDewpointWater temp
2018-Jun-24 15:00N 09°23' W 079°55'0 0.1
2018-Jun-24 14:30N 09°23' W 079°55'0 0.3
2018-Jun-24 14:00N 09°23' W 079°55'0 0.0
2018-Jun-24 13:28N 09°23' W 079°55'0 0.1
2018-Jun-24 13:00N 09°23' W 079°55'0 0.1
2018-Jun-24 12:30N 09°23' W 079°55'0 0.0
2018-Jun-24 12:00N 09°23' W 079°55'0 0.0
2018-Jun-24 11:30N 09°23' W 079°55'0 0.0
2018-Jun-24 11:00N 09°23' W 079°55'0 0.0
2018-Jun-24 10:30N 09°23' W 079°55'0 0.0
2018-Jun-24 10:00N 09°23' W 079°55'0 0.0
2018-Jun-24 09:30N 09°23' W 079°55'0 0.7
2018-Jun-24 09:00N 09°23' W 079°54'0 0.2
2018-Jun-24 08:30N 09°23' W 079°54'0 0.0
2018-Jun-24 08:01N 09°23' W 079°54'0 0.0
2018-Jun-24 07:30N 09°23' W 079°54'0 0.0
2018-Jun-24 07:00N 09°23' W 079°54'0 0.0
2018-Jun-24 06:30N 09°23' W 079°54'0 0.0
2018-Jun-24 05:59N 09°23' W 079°54'0 0.0
2018-Jun-24 05:31N 09°23' W 079°54'0 0.0
2018-Jun-24 05:00N 09°23' W 079°54'0 0.0
2018-Jun-24 04:30N 09°23' W 079°54'0 0.0
2018-Jun-24 04:00N 09°23' W 079°54'0 0.1
2018-Jun-24 03:30N 09°23' W 079°54'1 1.0
2018-Jun-24 03:00N 09°23' W 079°55'1 2.7
2018-Jun-24 02:30N 09°24' W 079°54'3 6.7
2018-Jun-24 02:00N 09°25' W 079°51'3 5.8
2018-Jun-24 01:30N 09°24' W 079°49'0 0.1
2018-Jun-24 01:00N 09°24' W 079°49'0 0.0
2018-Jun-24 00:30N 09°24' W 079°49'0 0.0
2018-Jun-23 23:58N 09°24' W 079°49'0 0.0
2018-Jun-23 23:30N 09°24' W 079°49'0 0.0
2018-Jun-23 23:00N 09°24' W 079°49'0 0.0
2018-Jun-23 22:30N 09°24' W 079°49'0 0.0
2018-Jun-23 22:00N 09°24' W 079°49'0 0.0
2018-Jun-23 21:22N 09°24' W 079°49'0 0.0
2018-Jun-23 21:00N 09°24' W 079°49'0 0.0
2018-Jun-23 20:29N 09°24' W 079°49'0 0.0
2018-Jun-23 19:58N 09°24' W 079°49'0 0.0
2018-Jun-23 19:29N 09°24' W 079°49'0 0.0
2018-Jun-23 19:00N 09°24' W 079°49'0 0.0
2018-Jun-23 18:27N 09°24' W 079°49'0 0.0
2018-Jun-23 18:00N 09°24' W 079°49'0 0.0
2018-Jun-23 17:21N 09°24' W 079°49'0 0.0
2018-Jun-23 16:08N 09°24' W 079°49'0 0.0
2018-Jun-23 15:59N 09°24' W 079°49'0 0.0
2018-Jun-23 15:30N 09°24' W 079°49'0 0.0
2018-Jun-23 15:00N 09°24' W 079°49'0 0.0
2018-Jun-23 14:30N 09°24' W 079°49'0 0.0
2018-Jun-23 14:00N 09°24' W 079°49'0 0.0
2018-Jun-23 13:30N 09°24' W 079°49'0 0.0
2018-Jun-23 12:59N 09°24' W 079°49'0 0.0
2018-Jun-23 12:29N 09°24' W 079°49'0 0.0
2018-Jun-23 12:00N 09°24' W 079°49'0 0.0
2018-Jun-23 11:31N 09°24' W 079°49'0 0.0
2018-Jun-23 11:00N 09°24' W 079°49'0 0.0
2018-Jun-23 10:30N 09°24' W 079°49'0 0.0
2018-Jun-23 09:55N 09°24' W 079°49'0 0.0
2018-Jun-23 09:21N 09°24' W 079°49'0 0.0
2018-Jun-23 08:58N 09°24' W 079°49'0 0.0
2018-Jun-23 08:30N 09°24' W 079°49'0 0.0
2018-Jun-23 08:00N 09°24' W 079°49'0 0.0
2018-Jun-23 07:30N 09°24' W 079°49'0 0.0
2018-Jun-23 06:59N 09°24' W 079°49'0 0.0
2018-Jun-23 06:30N 09°24' W 079°49'0 0.0
2018-Jun-23 06:00N 09°24' W 079°49'0 0.0
2018-Jun-23 05:07N 09°24' W 079°49'0 0.0
2018-Jun-23 04:52N 09°24' W 079°49'0 0.0
2018-Jun-23 04:29N 09°24' W 079°49'0 0.0
2018-Jun-23 03:57N 09°24' W 079°49'0 0.0
2018-Jun-23 03:21N 09°24' W 079°49'0 0.0
2018-Jun-23 02:55N 09°24' W 079°49'0 0.0
2018-Jun-23 02:30N 09°24' W 079°49'0 0.0
2018-Jun-23 01:15N 09°24' W 079°49'0 0.0
2018-Jun-23 01:00N 09°24' W 079°49'0 0.4
2018-Jun-23 00:31N 09°24' W 079°49'3 5.9
2018-Jun-23 00:00N 09°26' W 079°51'3 7.0
2018-Jun-22 23:30N 09°23' W 079°54'1 1.3
2018-Jun-22 23:00N 09°23' W 079°54'0 0.2
2018-Jun-22 22:30N 09°23' W 079°54'0 0.1
2018-Jun-22 22:00N 09°23' W 079°54'0 0.0
2018-Jun-22 21:29N 09°23' W 079°54'0 0.0
2018-Jun-22 21:01N 09°23' W 079°54'0 0.0
2018-Jun-22 20:28N 09°23' W 079°54'0 0.0
2018-Jun-22 20:00N 09°23' W 079°54'0 0.0
2018-Jun-22 19:30N 09°23' W 079°54'0 0.0
2018-Jun-22 19:00N 09°23' W 079°54'0 0.0
2018-Jun-22 18:30N 09°23' W 079°54'0 0.0
2018-Jun-22 18:00N 09°23' W 079°54'0 0.2
2018-Jun-22 17:30N 09°23' W 079°54'0 0.0
2018-Jun-22 17:00N 09°23' W 079°54'0 0.0
2018-Jun-22 16:30N 09°23' W 079°54'0 0.0
2018-Jun-22 16:00N 09°23' W 079°54'0 0.0
2018-Jun-22 15:30N 09°23' W 079°54'0 0.1
2018-Jun-22 15:00N 09°23' W 079°54'0 0.7
2018-Jun-22 14:30N 09°22' W 079°54'0 0.0
2018-Jun-22 14:00N 09°22' W 079°54'0 0.0
2018-Jun-22 13:30N 09°22' W 079°54'0 0.0
2018-Jun-22 13:00N 09°22' W 079°54'0 0.0
2018-Jun-22 12:31N 09°22' W 079°54'0 0.0
2018-Jun-22 12:00N 09°23' W 079°54'0 0.0
2018-Jun-22 11:30N 09°22' W 079°54'0 0.0
2018-Jun-22 10:58N 09°22' W 079°54'0 0.0
2018-Jun-22 10:30N 09°22' W 079°54'0 0.0
2018-Jun-22 09:58N 09°22' W 079°54'0 0.0
2018-Jun-22 09:30N 09°22' W 079°54'0 0.0
2018-Jun-22 09:00N 09°22' W 079°54'0 0.0
2018-Jun-22 08:30N 09°22' W 079°54'0 0.0
2018-Jun-22 08:01N 09°22' W 079°54'0 0.0
2018-Jun-22 07:30N 09°23' W 079°55'0 0.1
2018-Jun-22 07:00N 09°23' W 079°55'0 0.0
2018-Jun-22 06:29N 09°22' W 079°55'0 0.1
2018-Jun-22 06:00N 09°22' W 079°55'0 0.0
2018-Jun-22 05:30N 09°22' W 079°55'0 0.0
2018-Jun-22 05:01N 09°22' W 079°55'0 0.0
2018-Jun-22 04:30N 09°22' W 079°55'0 0.0
2018-Jun-22 04:00N 09°22' W 079°55'1 1.7
2018-Jun-22 03:09N 09°22' W 079°56'0 0.1
2018-Jun-22 03:00N 09°22' W 079°56'0 0.1
2018-Jun-22 02:30N 09°22' W 079°56'0 0.0
2018-Jun-22 02:00N 09°22' W 079°56'0 0.0
2018-Jun-22 01:30N 09°22' W 079°56'0 0.0
2018-Jun-22 01:00N 09°22' W 079°56'0 0.0
2018-Jun-22 00:30N 09°22' W 079°56'0 0.1
2018-Jun-22 00:00N 09°21' W 079°56'1 2.6
2018-Jun-21 23:30N 09°23' W 079°56'0 0.0
2018-Jun-21 23:00N 09°23' W 079°56'0 0.0
2018-Jun-21 22:30N 09°23' W 079°56'0 0.1
2018-Jun-21 22:00N 09°23' W 079°56'0 0.0
2018-Jun-21 21:30N 09°23' W 079°56'0 0.0
2018-Jun-21 21:00N 09°23' W 079°56'0 0.1
2018-Jun-21 20:30N 09°23' W 079°55'0 0.0
2018-Jun-21 20:00N 09°23' W 079°55'0 0.0
2018-Jun-21 19:31N 09°23' W 079°55'0 0.2
2018-Jun-21 19:01N 09°23' W 079°55'0 0.1
2018-Jun-21 18:30N 09°23' W 079°55'0 0.1
2018-Jun-21 18:00N 09°23' W 079°55'0 0.2
2018-Jun-21 17:30N 09°23' W 079°56'0 0.1
2018-Jun-21 17:00N 09°23' W 079°56'0 0.0
2018-Jun-21 16:30N 09°23' W 079°56'0 0.1
2018-Jun-21 15:59N 09°23' W 079°56'0 0.0
2018-Jun-21 15:30N 09°23' W 079°56'1 1.4
2018-Jun-21 15:00N 09°23' W 079°55'1 1.2
2018-Jun-21 14:30N 09°23' W 079°54'0 0.0
2018-Jun-21 14:01N 09°23' W 079°54'0 0.0
2018-Jun-21 13:30N 09°23' W 079°54'0 0.0
2018-Jun-21 13:00N 09°23' W 079°54'0 0.0
2018-Jun-21 12:30N 09°23' W 079°54'0 0.0
2018-Jun-21 12:00N 09°23' W 079°54'0 0.0
2018-Jun-21 11:30N 09°23' W 079°54'0 0.0
2018-Jun-21 11:01N 09°23' W 079°54'0 0.0
2018-Jun-21 10:30N 09°23' W 079°54'0 0.0
2018-Jun-21 10:00N 09°23' W 079°54'0 0.3
2018-Jun-21 09:30N 09°23' W 079°54'2 3.1
2018-Jun-21 09:00N 09°22' W 079°53'0 0.0
2018-Jun-21 08:30N 09°22' W 079°53'0 0.0
2018-Jun-21 08:00N 09°22' W 079°53'0 0.0
2018-Jun-21 07:30N 09°22' W 079°53'0 0.0
2018-Jun-21 07:00N 09°22' W 079°53'0 0.0
2018-Jun-21 06:31N 09°22' W 079°53'0 0.0
2018-Jun-21 06:01N 09°22' W 079°53'0 0.0
2018-Jun-21 05:30N 09°22' W 079°53'0 0.0
2018-Jun-21 05:00N 09°22' W 079°53'0 0.0
2018-Jun-21 04:30N 09°22' W 079°53'0 0.0
2018-Jun-21 04:00N 09°22' W 079°53'0 0.0
2018-Jun-21 03:31N 09°22' W 079°53'0 0.0
2018-Jun-21 03:01N 09°22' W 079°53'0 0.0
2018-Jun-21 02:31N 09°22' W 079°53'0 0.0
2018-Jun-21 01:59N 09°22' W 079°53'0 0.0
2018-Jun-21 01:31N 09°22' W 079°53'0 0.0
2018-Jun-21 01:00N 09°22' W 079°53'0 0.0
2018-Jun-21 00:31N 09°22' W 079°53'0 0.0
2018-Jun-21 00:00N 09°22' W 079°53'0 0.0
2018-Jun-20 23:30N 09°22' W 079°53'0 0.1
2018-Jun-20 23:00N 09°22' W 079°53'0 0.9
2018-Jun-20 22:30N 09°22' W 079°53'1 2.3
2018-Jun-20 21:59N 09°23' W 079°54'0 0.0
2018-Jun-20 21:30N 09°23' W 079°54'0 0.0
2018-Jun-20 21:00N 09°23' W 079°54'0 0.7
2018-Jun-20 20:30N 09°23' W 079°54'3 5.9
2018-Jun-20 20:00N 09°25' W 079°53'4 6.2
2018-Jun-20 19:25N 09°24' W 079°49'1 0.1
2018-Jun-20 12:11N 09°24' W 079°49'0 0.0
2018-Jun-20 12:00N 09°24' W 079°49'0 0.0
2018-Jun-20 11:20N 09°24' W 079°49'0 0.0
2018-Jun-20 10:55N 09°24' W 079°49'0 0.0
2018-Jun-20 10:30N 09°24' W 079°49'0 0.0
2018-Jun-20 10:00N 09°24' W 079°49'0 0.0
2018-Jun-20 09:30N 09°24' W 079°49'0 0.0
2018-Jun-20 09:00N 09°24' W 079°49'0 0.0
2018-Jun-20 08:30N 09°24' W 079°49'0 0.0
2018-Jun-20 07:59N 09°24' W 079°49'0 0.0
2018-Jun-20 07:29N 09°24' W 079°49'0 0.0
2018-Jun-20 07:00N 09°24' W 079°49'0 0.0
2018-Jun-20 06:30N 09°24' W 079°49'0 0.0
2018-Jun-20 06:00N 09°24' W 079°49'0 0.0
2018-Jun-20 05:30N 09°24' W 079°49'0 0.0
2018-Jun-20 04:59N 09°24' W 079°49'0 0.0
2018-Jun-20 04:30N 09°24' W 079°49'0 0.0
2018-Jun-20 04:00N 09°24' W 079°49'0 0.0
2018-Jun-20 03:30N 09°24' W 079°49'0 1.0
2018-Jun-20 03:00N 09°24' W 079°49'1 2.7
2018-Jun-20 02:29N 09°25' W 079°50'2 4.1
2018-Jun-20 02:00N 09°26' W 079°52'4 7.4
2018-Jun-20 01:30N 09°23' W 079°54'0 0.7
2018-Jun-20 01:00N 09°23' W 079°54'0 0.0
2018-Jun-20 00:30N 09°23' W 079°54'0 0.0
2018-Jun-20 00:00N 09°23' W 079°54'0 0.0
2018-Jun-19 23:30N 09°23' W 079°54'0 0.0
2018-Jun-19 23:00N 09°23' W 079°54'0 0.1
2018-Jun-19 22:31N 09°23' W 079°54'0 0.1
2018-Jun-19 22:00N 09°23' W 079°54'0 0.0
2018-Jun-19 21:30N 09°23' W 079°54'0 0.1
2018-Jun-19 21:00N 09°23' W 079°54'0 0.0
2018-Jun-19 20:30N 09°23' W 079°54'0 0.0
2018-Jun-19 20:00N 09°23' W 079°54'0 0.1
2018-Jun-19 19:30N 09°23' W 079°54'0 0.0
2018-Jun-19 19:00N 09°23' W 079°54'0 0.1
2018-Jun-19 18:30N 09°23' W 079°54'0 0.1
2018-Jun-19 17:59N 09°23' W 079°54'0 0.0
2018-Jun-19 17:30N 09°23' W 079°54'0 0.1
2018-Jun-19 17:00N 09°23' W 079°54'0 0.0
2018-Jun-19 16:30N 09°23' W 079°54'0 0.0
2018-Jun-19 16:00N 09°23' W 079°54'0 0.0
2018-Jun-19 15:29N 09°23' W 079°54'0 0.1
2018-Jun-19 15:01N 09°23' W 079°54'0 0.0
2018-Jun-19 14:30N 09°23' W 079°54'0 0.1
2018-Jun-19 14:00N 09°23' W 079°54'0 0.1
2018-Jun-19 13:30N 09°23' W 079°54'0 0.1
2018-Jun-19 13:00N 09°23' W 079°54'0 0.0
2018-Jun-19 12:30N 09°23' W 079°54'0 0.0
2018-Jun-19 12:00N 09°23' W 079°54'0 0.0
2018-Jun-19 11:30N 09°23' W 079°54'0 0.1
2018-Jun-19 11:00N 09°23' W 079°54'0 0.0
2018-Jun-19 10:30N 09°23' W 079°54'0 0.0
2018-Jun-19 10:00N 09°23' W 079°54'0 0.0
2018-Jun-19 09:30N 09°23' W 079°54'0 0.0
2018-Jun-19 09:00N 09°23' W 079°54'0 0.0
2018-Jun-19 08:30N 09°23' W 079°54'0 0.0
2018-Jun-19 08:00N 09°23' W 079°54'0 0.0
2018-Jun-19 07:30N 09°23' W 079°54'0 0.1
2018-Jun-19 07:00N 09°23' W 079°54'0 0.1
2018-Jun-19 06:30N 09°23' W 079°54'0 0.1
2018-Jun-19 06:01N 09°23' W 079°54'0 0.0
2018-Jun-19 05:29N 09°23' W 079°54'0 0.0
2018-Jun-19 05:00N 09°23' W 079°54'0 0.0
2018-Jun-19 04:30N 09°23' W 079°54'0 0.0
2018-Jun-19 04:00N 09°23' W 079°54'0 0.0
2018-Jun-19 03:30N 09°23' W 079°54'0 0.0
2018-Jun-19 03:00N 09°23' W 079°54'0 0.0
2018-Jun-19 02:30N 09°23' W 079°54'0 0.0
2018-Jun-19 02:00N 09°23' W 079°54'0 0.1
2018-Jun-19 01:29N 09°23' W 079°54'0 0.1
2018-Jun-19 01:00N 09°23' W 079°54'0 0.1
2018-Jun-19 00:30N 09°23' W 079°54'0 0.1
2018-Jun-18 23:46N 09°23' W 079°54'0 0.0
2018-Jun-18 23:30N 09°23' W 079°54'0 0.0
2018-Jun-18 23:00N 09°23' W 079°54'0 0.1
2018-Jun-18 22:31N 09°23' W 079°54'0 0.1
2018-Jun-18 22:00N 09°23' W 079°54'0 0.1
2018-Jun-18 21:30N 09°23' W 079°54'0 0.0
2018-Jun-18 21:00N 09°23' W 079°54'0 0.0
2018-Jun-18 20:30N 09°23' W 079°54'0 0.2
2018-Jun-18 20:00N 09°23' W 079°54'0 0.1
2018-Jun-18 19:30N 09°23' W 079°54'0 0.0
2018-Jun-18 19:00N 09°23' W 079°54'0 0.0
2018-Jun-18 18:30N 09°23' W 079°54'0 0.1
2018-Jun-18 18:00N 09°23' W 079°54'0 0.6
2018-Jun-18 17:30N 09°22' W 079°54'0 0.0
2018-Jun-18 17:00N 09°22' W 079°54'0 0.0
2018-Jun-18 16:30N 09°22' W 079°54'0 0.0
2018-Jun-18 16:00N 09°22' W 079°54'0 0.0
2018-Jun-18 15:30N 09°22' W 079°54'0 0.0
2018-Jun-18 15:00N 09°22' W 079°54'0 0.0
2018-Jun-18 14:29N 09°22' W 079°54'0 0.1
2018-Jun-18 14:00N 09°22' W 079°54'0 0.0
2018-Jun-18 13:30N 09°22' W 079°54'0 0.1
2018-Jun-18 13:00N 09°22' W 079°54'0 0.0
2018-Jun-18 12:30N 09°22' W 079°54'0 0.0
2018-Jun-18 12:01N 09°22' W 079°54'0 0.0
2018-Jun-18 11:30N 09°22' W 079°54'0 0.0
2018-Jun-18 11:00N 09°22' W 079°54'0 0.1
2018-Jun-18 10:30N 09°22' W 079°54'0 0.0
2018-Jun-18 09:59N 09°22' W 079°54'0 0.1
2018-Jun-18 09:30N 09°22' W 079°54'0 0.1
2018-Jun-18 09:01N 09°22' W 079°54'1 2.7
2018-Jun-18 08:30N 09°22' W 079°53'0 0.0
2018-Jun-18 08:00N 09°22' W 079°53'0 0.0
2018-Jun-18 07:30N 09°22' W 079°53'0 0.0
2018-Jun-18 07:00N 09°22' W 079°53'0 0.0
2018-Jun-18 06:30N 09°22' W 079°53'0 0.0
2018-Jun-18 06:00N 09°22' W 079°53'0 0.0
2018-Jun-18 05:30N 09°22' W 079°53'0 0.0
2018-Jun-18 05:00N 09°22' W 079°53'0 0.0
2018-Jun-18 04:30N 09°22' W 079°53'0 0.0
2018-Jun-18 04:00N 09°22' W 079°53'0 0.0
2018-Jun-18 03:30N 09°22' W 079°53'0 0.0
2018-Jun-18 03:00N 09°22' W 079°53'0 0.0
2018-Jun-18 02:30N 09°22' W 079°53'0 0.0
2018-Jun-18 02:01N 09°22' W 079°53'0 0.0
2018-Jun-18 01:30N 09°22' W 079°53'0 0.0
2018-Jun-18 01:00N 09°22' W 079°53'0 0.0
2018-Jun-18 00:30N 09°22' W 079°53'0 0.0
2018-Jun-18 00:00N 09°22' W 079°53'0 0.1
2018-Jun-17 23:30N 09°22' W 079°53'1 2.2
2018-Jun-17 23:01N 09°22' W 079°54'1 1.0
2018-Jun-17 22:30N 09°23' W 079°54'0 0.0
2018-Jun-17 22:00N 09°23' W 079°54'0 0.0
2018-Jun-17 21:30N 09°23' W 079°54'0 0.1
2018-Jun-17 21:00N 09°23' W 079°54'0 0.0
2018-Jun-17 20:30N 09°23' W 079°54'0 0.0
2018-Jun-17 20:00N 09°23' W 079°54'0 0.0
2018-Jun-17 19:30N 09°23' W 079°54'0 0.1
2018-Jun-17 19:00N 09°23' W 079°54'0 0.3
2018-Jun-17 18:30N 09°22' W 079°54'1 2.4
2018-Jun-17 18:00N 09°22' W 079°53'0 0.0
2018-Jun-17 17:30N 09°22' W 079°53'0 0.0
2018-Jun-17 17:00N 09°22' W 079°53'0 0.0
2018-Jun-17 16:30N 09°22' W 079°53'0 0.0
2018-Jun-17 16:00N 09°22' W 079°53'0 0.0
2018-Jun-17 15:30N 09°22' W 079°53'0 0.0
2018-Jun-17 15:00N 09°22' W 079°53'0 0.0
2018-Jun-17 14:30N 09°22' W 079°53'0 0.0
2018-Jun-17 14:00N 09°22' W 079°53'0 0.0
2018-Jun-17 13:30N 09°22' W 079°53'0 0.1
2018-Jun-17 13:00N 09°22' W 079°53'0 0.1
2018-Jun-17 12:31N 09°22' W 079°53'0 0.0
2018-Jun-17 11:59N 09°22' W 079°53'0 0.0
2018-Jun-17 11:30N 09°22' W 079°53'0 0.0
2018-Jun-17 11:00N 09°22' W 079°53'0 0.0
2018-Jun-17 10:31N 09°22' W 079°53'0 0.0
2018-Jun-17 10:00N 09°22' W 079°53'0 0.0
2018-Jun-17 09:30N 09°22' W 079°53'0 0.0
2018-Jun-17 09:00N 09°22' W 079°53'0 0.0
2018-Jun-17 08:30N 09°22' W 079°53'0 0.0
2018-Jun-17 08:01N 09°22' W 079°53'0 0.0
2018-Jun-17 07:31N 09°22' W 079°53'0 0.0
2018-Jun-17 07:00N 09°22' W 079°53'0 0.0
2018-Jun-17 06:30N 09°22' W 079°53'0 0.0
2018-Jun-17 06:00N 09°22' W 079°53'0 0.0
2018-Jun-17 05:31N 09°22' W 079°53'0 0.2
2018-Jun-17 05:01N 09°22' W 079°53'0 0.1
2018-Jun-17 04:30N 09°22' W 079°53'0 0.1
2018-Jun-17 04:00N 09°22' W 079°53'0 0.2
2018-Jun-17 03:31N 09°22' W 079°53'1 2.1
2018-Jun-17 03:00N 09°22' W 079°54'0 0.0
2018-Jun-17 02:30N 09°22' W 079°54'0 0.0
2018-Jun-17 02:00N 09°22' W 079°54'0 0.0
2018-Jun-17 01:28N 09°22' W 079°54'0 0.0
2018-Jun-17 01:01N 09°22' W 079°54'0 0.0
2018-Jun-17 00:30N 09°22' W 079°54'0 0.0
2018-Jun-16 23:55N 09°22' W 079°54'0 0.0
2018-Jun-16 23:25N 09°22' W 079°54'0 0.0
2018-Jun-16 23:00N 09°22' W 079°54'0 0.0
2018-Jun-16 22:31N 09°22' W 079°54'0 0.0
2018-Jun-16 22:00N 09°22' W 079°54'0 0.0
2018-Jun-16 21:30N 09°22' W 079°54'0 0.1
2018-Jun-16 21:00N 09°22' W 079°54'0 0.0
2018-Jun-16 20:29N 09°22' W 079°54'0 0.0
2018-Jun-16 20:00N 09°22' W 079°54'0 0.0
2018-Jun-16 19:30N 09°22' W 079°54'0 0.0
2018-Jun-16 19:00N 09°22' W 079°54'0 0.0
2018-Jun-16 18:30N 09°22' W 079°54'0 0.0
2018-Jun-16 18:00N 09°22' W 079°54'0 0.0
2018-Jun-16 17:30N 09°22' W 079°54'0 0.0
2018-Jun-16 17:00N 09°22' W 079°54'0 0.0
2018-Jun-16 16:30N 09°22' W 079°54'0 0.0
2018-Jun-16 16:01N 09°22' W 079°54'0 0.0
2018-Jun-16 15:30N 09°22' W 079°54'0 0.0
2018-Jun-16 15:01N 09°22' W 079°54'0 0.1
2018-Jun-16 14:30N 09°22' W 079°54'0 0.0
2018-Jun-16 14:00N 09°22' W 079°54'0 0.0
2018-Jun-16 13:31N 09°23' W 079°54'0 0.0
2018-Jun-16 13:00N 09°23' W 079°54'0 0.0
2018-Jun-16 12:30N 09°23' W 079°54'0 0.0
2018-Jun-16 12:00N 09°23' W 079°54'0 0.0
2018-Jun-16 11:30N 09°23' W 079°54'0 0.0
2018-Jun-16 11:00N 09°23' W 079°54'0 0.0
2018-Jun-16 10:31N 09°23' W 079°54'0 0.0
2018-Jun-16 09:55N 09°23' W 079°54'0 0.0
2018-Jun-16 09:29N 09°22' W 079°54'0 0.0
2018-Jun-16 09:00N 09°22' W 079°54'0 0.1
2018-Jun-16 08:30N 09°22' W 079°54'0 0.0
2018-Jun-16 08:00N 09°22' W 079°54'0 0.0
2018-Jun-16 07:30N 09°22' W 079°54'0 0.1
2018-Jun-16 07:00N 09°22' W 079°54'0 0.0
2018-Jun-16 06:30N 09°22' W 079°54'0 0.0
2018-Jun-16 06:01N 09°22' W 079°54'0 0.0
2018-Jun-16 05:30N 09°22' W 079°54'0 0.0
2018-Jun-16 05:00N 09°22' W 079°54'0 0.1
2018-Jun-16 04:30N 09°22' W 079°54'0 0.0
2018-Jun-16 04:00N 09°22' W 079°54'0 0.0
2018-Jun-16 03:30N 09°22' W 079°54'0 0.0
2018-Jun-16 03:01N 09°22' W 079°54'0 0.1
2018-Jun-16 02:29N 09°22' W 079°54'0 0.0
2018-Jun-16 02:01N 09°22' W 079°54'0 0.0
2018-Jun-16 01:30N 09°22' W 079°54'0 0.0
2018-Jun-16 01:00N 09°22' W 079°54'0 0.0
2018-Jun-16 00:30N 09°22' W 079°54'0 0.0
2018-Jun-16 00:00N 09°22' W 079°54'0 0.0
2018-Jun-15 23:30N 09°22' W 079°54'0 0.0
2018-Jun-15 23:00N 09°22' W 079°54'0 0.0
2018-Jun-15 22:30N 09°22' W 079°54'0 0.0
2018-Jun-15 22:01N 09°22' W 079°54'0 0.0
2018-Jun-15 21:30N 09°22' W 079°54'0 0.0
2018-Jun-15 21:00N 09°22' W 079°54'0 0.0
2018-Jun-15 20:30N 09°22' W 079°54'0 0.0
2018-Jun-15 20:00N 09°22' W 079°54'0 0.0
2018-Jun-15 19:30N 09°22' W 079°54'0 0.1
2018-Jun-15 19:00N 09°22' W 079°54'0 0.0
2018-Jun-15 18:30N 09°22' W 079°54'0 0.0
2018-Jun-15 18:00N 09°22' W 079°54'0 0.1
2018-Jun-15 17:31N 09°22' W 079°54'0 0.0
2018-Jun-15 17:01N 09°22' W 079°54'0 0.0
2018-Jun-15 16:30N 09°22' W 079°54'0 0.0
2018-Jun-15 16:00N 09°22' W 079°54'0 0.0
2018-Jun-15 15:30N 09°22' W 079°54'0 0.0
2018-Jun-15 15:00N 09°22' W 079°54'0 0.5
2018-Jun-15 14:30N 09°22' W 079°54'1 2.8
2018-Jun-15 14:00N 09°21' W 079°55'0 0.3
2018-Jun-15 13:30N 09°21' W 079°54'0 0.0
2018-Jun-15 13:00N 09°21' W 079°54'0 0.0
2018-Jun-15 12:29N 09°21' W 079°54'0 0.0
2018-Jun-15 12:00N 09°21' W 079°54'0 0.0
2018-Jun-15 11:30N 09°21' W 079°54'0 0.0
2018-Jun-15 11:00N 09°21' W 079°54'0 0.0
2018-Jun-15 10:30N 09°21' W 079°54'0 0.0
2018-Jun-15 10:00N 09°21' W 079°54'0 0.0
2018-Jun-15 09:30N 09°21' W 079°54'0 0.0
2018-Jun-15 09:00N 09°21' W 079°54'0 0.0
2018-Jun-15 08:30N 09°21' W 079°54'0 0.0
2018-Jun-15 08:00N 09°21' W 079°54'0 0.0
2018-Jun-15 07:30N 09°21' W 079°54'0 0.0
2018-Jun-15 07:00N 09°21' W 079°54'0 0.0
2018-Jun-15 06:31N 09°21' W 079°54'0 0.0
2018-Jun-15 06:00N 09°21' W 079°54'0 0.0
2018-Jun-15 05:30N 09°21' W 079°54'0 0.0
2018-Jun-15 05:00N 09°21' W 079°54'0 0.0
2018-Jun-15 04:30N 09°21' W 079°54'0 0.0
2018-Jun-15 04:01N 09°21' W 079°54'0 0.0
2018-Jun-15 03:30N 09°21' W 079°54'0 0.0
2018-Jun-15 03:01N 09°21' W 079°54'1 2.7
2018-Jun-15 02:31N 09°22' W 079°55'0 0.5
2018-Jun-15 02:00N 09°22' W 079°56'0 0.0
2018-Jun-15 01:30N 09°22' W 079°56'0 0.0
2018-Jun-15 01:00N 09°22' W 079°56'0 0.0
2018-Jun-15 00:30N 09°22' W 079°56'0 0.1
2018-Jun-15 00:00N 09°22' W 079°56'0 0.0
2018-Jun-14 23:30N 09°22' W 079°56'0 0.1
2018-Jun-14 23:00N 09°22' W 079°56'0 0.0
2018-Jun-14 22:30N 09°22' W 079°56'0 0.0
2018-Jun-14 22:00N 09°22' W 079°56'0 0.0
2018-Jun-14 21:30N 09°22' W 079°56'0 0.0
2018-Jun-14 21:00N 09°22' W 079°56'0 0.1
2018-Jun-14 20:31N 09°22' W 079°56'0 0.0
2018-Jun-14 19:58N 09°22' W 079°56'0 0.0
2018-Jun-14 19:30N 09°22' W 079°56'0 0.0
2018-Jun-14 19:01N 09°22' W 079°56'0 0.0
2018-Jun-14 18:31N 09°22' W 079°56'0 0.0
2018-Jun-14 18:00N 09°22' W 079°56'0 0.1
2018-Jun-14 17:30N 09°22' W 079°56'0 0.0
2018-Jun-14 17:00N 09°22' W 079°56'0 0.0
2018-Jun-14 16:31N 09°22' W 079°56'0 0.1
2018-Jun-14 16:00N 09°22' W 079°56'0 0.1
2018-Jun-14 15:31N 09°22' W 079°56'  
Track history (hours):
 
Tides and Currents Weather Stations Pressure Air Temp Water Temp Dewpoint Dewpoint Depression Visibility Wind Speed Wind Dir Waves Ship Positions

Kelly Trader

Last reported at 2018-Jun-24 15:00 UTC. Time now 2018-Jun-24 15:09 UTC.
Position N 09°23' W 079°55'.

Length 96 m; draft 4.2 m.

Type: Tanker. MMSI: 373194000.

Date/timePositionNaut miles runAvg speedWind from/ knotsBaromVisibWave heightAir tempDewpointWater temp
2018-Jun-24 15:00N 09°23' W 079°55'0 0.1
2018-Jun-24 14:30N 09°23' W 079°55'0 0.3
2018-Jun-24 14:00N 09°23' W 079°55'0 0.0
2018-Jun-24 13:28N 09°23' W 079°55'0 0.1
2018-Jun-24 13:00N 09°23' W 079°55'0 0.1
2018-Jun-24 12:30N 09°23' W 079°55'0 0.0
2018-Jun-24 12:00N 09°23' W 079°55'0 0.0
2018-Jun-24 11:30N 09°23' W 079°55'0 0.0
2018-Jun-24 11:00N 09°23' W 079°55'0 0.0
2018-Jun-24 10:30N 09°23' W 079°55'0 0.0
2018-Jun-24 10:00N 09°23' W 079°55'0 0.0
2018-Jun-24 09:30N 09°23' W 079°55'0 0.7
2018-Jun-24 09:00N 09°23' W 079°54'0 0.2
2018-Jun-24 08:30N 09°23' W 079°54'0 0.0
2018-Jun-24 08:01N 09°23' W 079°54'0 0.0
2018-Jun-24 07:30N 09°23' W 079°54'0 0.0
2018-Jun-24 07:00N 09°23' W 079°54'0 0.0
2018-Jun-24 06:30N 09°23' W 079°54'0 0.0
2018-Jun-24 05:59N 09°23' W 079°54'0 0.0
2018-Jun-24 05:31N 09°23' W 079°54'0 0.0
2018-Jun-24 05:00N 09°23' W 079°54'0 0.0
2018-Jun-24 04:30N 09°23' W 079°54'0 0.0
2018-Jun-24 04:00N 09°23' W 079°54'0 0.1
2018-Jun-24 03:30N 09°23' W 079°54'1 1.0
2018-Jun-24 03:00N 09°23' W 079°55'1 2.7
2018-Jun-24 02:30N 09°24' W 079°54'3 6.7
2018-Jun-24 02:00N 09°25' W 079°51'3 5.8
2018-Jun-24 01:30N 09°24' W 079°49'0 0.1
2018-Jun-24 01:00N 09°24' W 079°49'0 0.0
2018-Jun-24 00:30N 09°24' W 079°49'0 0.0
2018-Jun-23 23:58N 09°24' W 079°49'0 0.0
2018-Jun-23 23:30N 09°24' W 079°49'0 0.0
2018-Jun-23 23:00N 09°24' W 079°49'0 0.0
2018-Jun-23 22:30N 09°24' W 079°49'0 0.0
2018-Jun-23 22:00N 09°24' W 079°49'0 0.0
2018-Jun-23 21:22N 09°24' W 079°49'0 0.0
2018-Jun-23 21:00N 09°24' W 079°49'0 0.0
2018-Jun-23 20:29N 09°24' W 079°49'0 0.0
2018-Jun-23 19:58N 09°24' W 079°49'0 0.0
2018-Jun-23 19:29N 09°24' W 079°49'0 0.0
2018-Jun-23 19:00N 09°24' W 079°49'0 0.0
2018-Jun-23 18:27N 09°24' W 079°49'0 0.0
2018-Jun-23 18:00N 09°24' W 079°49'0 0.0
2018-Jun-23 17:21N 09°24' W 079°49'0 0.0
2018-Jun-23 16:08N 09°24' W 079°49'0 0.0
2018-Jun-23 15:59N 09°24' W 079°49'0 0.0
2018-Jun-23 15:30N 09°24' W 079°49'0 0.0
2018-Jun-23 15:00N 09°24' W 079°49'0 0.0
2018-Jun-23 14:30N 09°24' W 079°49'0 0.0
2018-Jun-23 14:00N 09°24' W 079°49'0 0.0
2018-Jun-23 13:30N 09°24' W 079°49'0 0.0
2018-Jun-23 12:59N 09°24' W 079°49'0 0.0
2018-Jun-23 12:29N 09°24' W 079°49'0 0.0
2018-Jun-23 12:00N 09°24' W 079°49'0 0.0
2018-Jun-23 11:31N 09°24' W 079°49'0 0.0
2018-Jun-23 11:00N 09°24' W 079°49'0 0.0
2018-Jun-23 10:30N 09°24' W 079°49'0 0.0
2018-Jun-23 09:55N 09°24' W 079°49'0 0.0
2018-Jun-23 09:21N 09°24' W 079°49'0 0.0
2018-Jun-23 08:58N 09°24' W 079°49'0 0.0
2018-Jun-23 08:30N 09°24' W 079°49'0 0.0
2018-Jun-23 08:00N 09°24' W 079°49'0 0.0
2018-Jun-23 07:30N 09°24' W 079°49'0 0.0
2018-Jun-23 06:59N 09°24' W 079°49'0 0.0
2018-Jun-23 06:30N 09°24' W 079°49'0 0.0
2018-Jun-23 06:00N 09°24' W 079°49'0 0.0
2018-Jun-23 05:07N 09°24' W 079°49'0 0.0
2018-Jun-23 04:52N 09°24' W 079°49'0 0.0
2018-Jun-23 04:29N 09°24' W 079°49'0 0.0
2018-Jun-23 03:57N 09°24' W 079°49'0 0.0
2018-Jun-23 03:21N 09°24' W 079°49'0 0.0
2018-Jun-23 02:55N 09°24' W 079°49'0 0.0
2018-Jun-23 02:30N 09°24' W 079°49'0 0.0
2018-Jun-23 01:15N 09°24' W 079°49'0 0.0
2018-Jun-23 01:00N 09°24' W 079°49'0 0.4
2018-Jun-23 00:31N 09°24' W 079°49'3 5.9
2018-Jun-23 00:00N 09°26' W 079°51'3 7.0
2018-Jun-22 23:30N 09°23' W 079°54'1 1.3
2018-Jun-22 23:00N 09°23' W 079°54'0 0.2
2018-Jun-22 22:30N 09°23' W 079°54'0 0.1
2018-Jun-22 22:00N 09°23' W 079°54'0 0.0
2018-Jun-22 21:29N 09°23' W 079°54'0 0.0
2018-Jun-22 21:01N 09°23' W 079°54'0 0.0
2018-Jun-22 20:28N 09°23' W 079°54'0 0.0
2018-Jun-22 20:00N 09°23' W 079°54'0 0.0
2018-Jun-22 19:30N 09°23' W 079°54'0 0.0
2018-Jun-22 19:00N 09°23' W 079°54'0 0.0
2018-Jun-22 18:30N 09°23' W 079°54'0 0.0
2018-Jun-22 18:00N 09°23' W 079°54'0 0.2
2018-Jun-22 17:30N 09°23' W 079°54'0 0.0
2018-Jun-22 17:00N 09°23' W 079°54'0 0.0
2018-Jun-22 16:30N 09°23' W 079°54'0 0.0
2018-Jun-22 16:00N 09°23' W 079°54'0 0.0
2018-Jun-22 15:30N 09°23' W 079°54'0 0.1
2018-Jun-22 15:00N 09°23' W 079°54'0 0.7
2018-Jun-22 14:30N 09°22' W 079°54'0 0.0
2018-Jun-22 14:00N 09°22' W 079°54'0 0.0
2018-Jun-22 13:30N 09°22' W 079°54'0 0.0
2018-Jun-22 13:00N 09°22' W 079°54'0 0.0
2018-Jun-22 12:31N 09°22' W 079°54'0 0.0
2018-Jun-22 12:00N 09°23' W 079°54'0 0.0
2018-Jun-22 11:30N 09°22' W 079°54'0 0.0
2018-Jun-22 10:58N 09°22' W 079°54'0 0.0
2018-Jun-22 10:30N 09°22' W 079°54'0 0.0
2018-Jun-22 09:58N 09°22' W 079°54'0 0.0
2018-Jun-22 09:30N 09°22' W 079°54'0 0.0
2018-Jun-22 09:00N 09°22' W 079°54'0 0.0
2018-Jun-22 08:30N 09°22' W 079°54'0 0.0
2018-Jun-22 08:01N 09°22' W 079°54'0 0.0
2018-Jun-22 07:30N 09°23' W 079°55'0 0.1
2018-Jun-22 07:00N 09°23' W 079°55'0 0.0
2018-Jun-22 06:29N 09°22' W 079°55'0 0.1
2018-Jun-22 06:00N 09°22' W 079°55'0 0.0
2018-Jun-22 05:30N 09°22' W 079°55'0 0.0
2018-Jun-22 05:01N 09°22' W 079°55'0 0.0
2018-Jun-22 04:30N 09°22' W 079°55'0 0.0
2018-Jun-22 04:00N 09°22' W 079°55'1 1.7
2018-Jun-22 03:09N 09°22' W 079°56'0 0.1
2018-Jun-22 03:00N 09°22' W 079°56'0 0.1
2018-Jun-22 02:30N 09°22' W 079°56'0 0.0
2018-Jun-22 02:00N 09°22' W 079°56'0 0.0
2018-Jun-22 01:30N 09°22' W 079°56'0 0.0
2018-Jun-22 01:00N 09°22' W 079°56'0 0.0
2018-Jun-22 00:30N 09°22' W 079°56'0 0.1
2018-Jun-22 00:00N 09°21' W 079°56'1 2.6
2018-Jun-21 23:30N 09°23' W 079°56'0 0.0
2018-Jun-21 23:00N 09°23' W 079°56'0 0.0
2018-Jun-21 22:30N 09°23' W 079°56'0 0.1
2018-Jun-21 22:00N 09°23' W 079°56'0 0.0
2018-Jun-21 21:30N 09°23' W 079°56'0 0.0
2018-Jun-21 21:00N 09°23' W 079°56'0 0.1
2018-Jun-21 20:30N 09°23' W 079°55'0 0.0
2018-Jun-21 20:00N 09°23' W 079°55'0 0.0
2018-Jun-21 19:31N 09°23' W 079°55'0 0.2
2018-Jun-21 19:01N 09°23' W 079°55'0 0.1
2018-Jun-21 18:30N 09°23' W 079°55'0 0.1
2018-Jun-21 18:00N 09°23' W 079°55'0 0.2
2018-Jun-21 17:30N 09°23' W 079°56'0 0.1
2018-Jun-21 17:00N 09°23' W 079°56'0 0.0
2018-Jun-21 16:30N 09°23' W 079°56'0 0.1
2018-Jun-21 15:59N 09°23' W 079°56'0 0.0
2018-Jun-21 15:30N 09°23' W 079°56'1 1.4
2018-Jun-21 15:00N 09°23' W 079°55'1 1.2
2018-Jun-21 14:30N 09°23' W 079°54'0 0.0
2018-Jun-21 14:01N 09°23' W 079°54'0 0.0
2018-Jun-21 13:30N 09°23' W 079°54'0 0.0
2018-Jun-21 13:00N 09°23' W 079°54'0 0.0
2018-Jun-21 12:30N 09°23' W 079°54'0 0.0
2018-Jun-21 12:00N 09°23' W 079°54'0 0.0
2018-Jun-21 11:30N 09°23' W 079°54'0 0.0
2018-Jun-21 11:01N 09°23' W 079°54'0 0.0
2018-Jun-21 10:30N 09°23' W 079°54'0 0.0
2018-Jun-21 10:00N 09°23' W 079°54'0 0.3
2018-Jun-21 09:30N 09°23' W 079°54'2 3.1
2018-Jun-21 09:00N 09°22' W 079°53'0 0.0
2018-Jun-21 08:30N 09°22' W 079°53'0 0.0
2018-Jun-21 08:00N 09°22' W 079°53'0 0.0
2018-Jun-21 07:30N 09°22' W 079°53'0 0.0
2018-Jun-21 07:00N 09°22' W 079°53'0 0.0
2018-Jun-21 06:31N 09°22' W 079°53'0 0.0
2018-Jun-21 06:01N 09°22' W 079°53'0 0.0
2018-Jun-21 05:30N 09°22' W 079°53'0 0.0
2018-Jun-21 05:00N 09°22' W 079°53'0 0.0
2018-Jun-21 04:30N 09°22' W 079°53'0 0.0
2018-Jun-21 04:00N 09°22' W 079°53'0 0.0
2018-Jun-21 03:31N 09°22' W 079°53'0 0.0
2018-Jun-21 03:01N 09°22' W 079°53'0 0.0
2018-Jun-21 02:31N 09°22' W 079°53'0 0.0
2018-Jun-21 01:59N 09°22' W 079°53'0 0.0
2018-Jun-21 01:31N 09°22' W 079°53'0 0.0
2018-Jun-21 01:00N 09°22' W 079°53'0 0.0
2018-Jun-21 00:31N 09°22' W 079°53'0 0.0
2018-Jun-21 00:00N 09°22' W 079°53'0 0.0
2018-Jun-20 23:30N 09°22' W 079°53'0 0.1
2018-Jun-20 23:00N 09°22' W 079°53'0 0.9
2018-Jun-20 22:30N 09°22' W 079°53'1 2.3
2018-Jun-20 21:59N 09°23' W 079°54'0 0.0
2018-Jun-20 21:30N 09°23' W 079°54'0 0.0
2018-Jun-20 21:00N 09°23' W 079°54'0 0.7
2018-Jun-20 20:30N 09°23' W 079°54'3 5.9
2018-Jun-20 20:00N 09°25' W 079°53'4 6.2
2018-Jun-20 19:25N 09°24' W 079°49'1 0.1
2018-Jun-20 12:11N 09°24' W 079°49'0 0.0
2018-Jun-20 12:00N 09°24' W 079°49'0 0.0
2018-Jun-20 11:20N 09°24' W 079°49'0 0.0
2018-Jun-20 10:55N 09°24' W 079°49'0 0.0
2018-Jun-20 10:30N 09°24' W 079°49'0 0.0
2018-Jun-20 10:00N 09°24' W 079°49'0 0.0
2018-Jun-20 09:30N 09°24' W 079°49'0 0.0
2018-Jun-20 09:00N 09°24' W 079°49'0 0.0
2018-Jun-20 08:30N 09°24' W 079°49'0 0.0
2018-Jun-20 07:59N 09°24' W 079°49'0 0.0
2018-Jun-20 07:29N 09°24' W 079°49'0 0.0
2018-Jun-20 07:00N 09°24' W 079°49'0 0.0
2018-Jun-20 06:30N 09°24' W 079°49'0 0.0
2018-Jun-20 06:00N 09°24' W 079°49'0 0.0
2018-Jun-20 05:30N 09°24' W 079°49'0 0.0
2018-Jun-20 04:59N 09°24' W 079°49'0 0.0
2018-Jun-20 04:30N 09°24' W 079°49'0 0.0
2018-Jun-20 04:00N 09°24' W 079°49'0 0.0
2018-Jun-20 03:30N 09°24' W 079°49'0 1.0
2018-Jun-20 03:00N 09°24' W 079°49'1 2.7
2018-Jun-20 02:29N 09°25' W 079°50'2 4.1
2018-Jun-20 02:00N 09°26' W 079°52'4 7.4
2018-Jun-20 01:30N 09°23' W 079°54'0 0.7
2018-Jun-20 01:00N 09°23' W 079°54'0 0.0
2018-Jun-20 00:30N 09°23' W 079°54'0 0.0
2018-Jun-20 00:00N 09°23' W 079°54'0 0.0
2018-Jun-19 23:30N 09°23' W 079°54'0 0.0
2018-Jun-19 23:00N 09°23' W 079°54'0 0.1
2018-Jun-19 22:31N 09°23' W 079°54'0 0.1
2018-Jun-19 22:00N 09°23' W 079°54'0 0.0
2018-Jun-19 21:30N 09°23' W 079°54'0 0.1
2018-Jun-19 21:00N 09°23' W 079°54'0 0.0
2018-Jun-19 20:30N 09°23' W 079°54'0 0.0
2018-Jun-19 20:00N 09°23' W 079°54'0 0.1
2018-Jun-19 19:30N 09°23' W 079°54'0 0.0
2018-Jun-19 19:00N 09°23' W 079°54'0 0.1
2018-Jun-19 18:30N 09°23' W 079°54'0 0.1
2018-Jun-19 17:59N 09°23' W 079°54'0 0.0
2018-Jun-19 17:30N 09°23' W 079°54'0 0.1
2018-Jun-19 17:00N 09°23' W 079°54'0 0.0
2018-Jun-19 16:30N 09°23' W 079°54'0 0.0
2018-Jun-19 16:00N 09°23' W 079°54'0 0.0
2018-Jun-19 15:29N 09°23' W 079°54'0 0.1
2018-Jun-19 15:01N 09°23' W 079°54'0 0.0
2018-Jun-19 14:30N 09°23' W 079°54'0 0.1
2018-Jun-19 14:00N 09°23' W 079°54'0 0.1
2018-Jun-19 13:30N 09°23' W 079°54'0 0.1
2018-Jun-19 13:00N 09°23' W 079°54'0 0.0
2018-Jun-19 12:30N 09°23' W 079°54'0 0.0
2018-Jun-19 12:00N 09°23' W 079°54'0 0.0
2018-Jun-19 11:30N 09°23' W 079°54'0 0.1
2018-Jun-19 11:00N 09°23' W 079°54'0 0.0
2018-Jun-19 10:30N 09°23' W 079°54'0 0.0
2018-Jun-19 10:00N 09°23' W 079°54'0 0.0
2018-Jun-19 09:30N 09°23' W 079°54'0 0.0
2018-Jun-19 09:00N 09°23' W 079°54'0 0.0
2018-Jun-19 08:30N 09°23' W 079°54'0 0.0
2018-Jun-19 08:00N 09°23' W 079°54'0 0.0
2018-Jun-19 07:30N 09°23' W 079°54'0 0.1
2018-Jun-19 07:00N 09°23' W 079°54'0 0.1
2018-Jun-19 06:30N 09°23' W 079°54'0 0.1
2018-Jun-19 06:01N 09°23' W 079°54'0 0.0
2018-Jun-19 05:29N 09°23' W 079°54'0 0.0
2018-Jun-19 05:00N 09°23' W 079°54'0 0.0
2018-Jun-19 04:30N 09°23' W 079°54'0 0.0
2018-Jun-19 04:00N 09°23' W 079°54'0 0.0
2018-Jun-19 03:30N 09°23' W 079°54'0 0.0
2018-Jun-19 03:00N 09°23' W 079°54'0 0.0
2018-Jun-19 02:30N 09°23' W 079°54'0 0.0
2018-Jun-19 02:00N 09°23' W 079°54'0 0.1
2018-Jun-19 01:29N 09°23' W 079°54'0 0.1
2018-Jun-19 01:00N 09°23' W 079°54'0 0.1
2018-Jun-19 00:30N 09°23' W 079°54'0 0.1
2018-Jun-18 23:46N 09°23' W 079°54'0 0.0
2018-Jun-18 23:30N 09°23' W 079°54'0 0.0
2018-Jun-18 23:00N 09°23' W 079°54'0 0.1
2018-Jun-18 22:31N 09°23' W 079°54'0 0.1
2018-Jun-18 22:00N 09°23' W 079°54'0 0.1
2018-Jun-18 21:30N 09°23' W 079°54'0 0.0
2018-Jun-18 21:00N 09°23' W 079°54'0 0.0
2018-Jun-18 20:30N 09°23' W 079°54'0 0.2
2018-Jun-18 20:00N 09°23' W 079°54'0 0.1
2018-Jun-18 19:30N 09°23' W 079°54'0 0.0
2018-Jun-18 19:00N 09°23' W 079°54'0 0.0
2018-Jun-18 18:30N 09°23' W 079°54'0 0.1
2018-Jun-18 18:00N 09°23' W 079°54'0 0.6
2018-Jun-18 17:30N 09°22' W 079°54'0 0.0
2018-Jun-18 17:00N 09°22' W 079°54'0 0.0
2018-Jun-18 16:30N 09°22' W 079°54'0 0.0
2018-Jun-18 16:00N 09°22' W 079°54'0 0.0
2018-Jun-18 15:30N 09°22' W 079°54'0 0.0
2018-Jun-18 15:00N 09°22' W 079°54'0 0.0
2018-Jun-18 14:29N 09°22' W 079°54'0 0.1
2018-Jun-18 14:00N 09°22' W 079°54'0 0.0
2018-Jun-18 13:30N 09°22' W 079°54'0 0.1
2018-Jun-18 13:00N 09°22' W 079°54'0 0.0
2018-Jun-18 12:30N 09°22' W 079°54'0 0.0
2018-Jun-18 12:01N 09°22' W 079°54'0 0.0
2018-Jun-18 11:30N 09°22' W 079°54'0 0.0
2018-Jun-18 11:00N 09°22' W 079°54'0 0.1
2018-Jun-18 10:30N 09°22' W 079°54'0 0.0
2018-Jun-18 09:59N 09°22' W 079°54'0 0.1
2018-Jun-18 09:30N 09°22' W 079°54'0 0.1
2018-Jun-18 09:01N 09°22' W 079°54'1 2.7
2018-Jun-18 08:30N 09°22' W 079°53'0 0.0
2018-Jun-18 08:00N 09°22' W 079°53'0 0.0
2018-Jun-18 07:30N 09°22' W 079°53'0 0.0
2018-Jun-18 07:00N 09°22' W 079°53'0 0.0
2018-Jun-18 06:30N 09°22' W 079°53'0 0.0
2018-Jun-18 06:00N 09°22' W 079°53'0 0.0
2018-Jun-18 05:30N 09°22' W 079°53'0 0.0
2018-Jun-18 05:00N 09°22' W 079°53'0 0.0
2018-Jun-18 04:30N 09°22' W 079°53'0 0.0
2018-Jun-18 04:00N 09°22' W 079°53'0 0.0
2018-Jun-18 03:30N 09°22' W 079°53'0 0.0
2018-Jun-18 03:00N 09°22' W 079°53'0 0.0
2018-Jun-18 02:30N 09°22' W 079°53'0 0.0
2018-Jun-18 02:01N 09°22' W 079°53'0 0.0
2018-Jun-18 01:30N 09°22' W 079°53'0 0.0
2018-Jun-18 01:00N 09°22' W 079°53'0 0.0
2018-Jun-18 00:30N 09°22' W 079°53'0 0.0
2018-Jun-18 00:00N 09°22' W 079°53'0 0.1
2018-Jun-17 23:30N 09°22' W 079°53'1 2.2
2018-Jun-17 23:01N 09°22' W 079°54'1 1.0
2018-Jun-17 22:30N 09°23' W 079°54'0 0.0
2018-Jun-17 22:00N 09°23' W 079°54'0 0.0
2018-Jun-17 21:30N 09°23' W 079°54'0 0.1
2018-Jun-17 21:00N 09°23' W 079°54'0 0.0
2018-Jun-17 20:30N 09°23' W 079°54'0 0.0
2018-Jun-17 20:00N 09°23' W 079°54'0 0.0
2018-Jun-17 19:30N 09°23' W 079°54'0 0.1
2018-Jun-17 19:00N 09°23' W 079°54'0 0.3
2018-Jun-17 18:30N 09°22' W 079°54'1 2.4
2018-Jun-17 18:00N 09°22' W 079°53'0 0.0
2018-Jun-17 17:30N 09°22' W 079°53'0 0.0
2018-Jun-17 17:00N 09°22' W 079°53'0 0.0
2018-Jun-17 16:30N 09°22' W 079°53'0 0.0
2018-Jun-17 16:00N 09°22' W 079°53'0 0.0
2018-Jun-17 15:30N 09°22' W 079°53'0 0.0
2018-Jun-17 15:00N 09°22' W 079°53'0 0.0
2018-Jun-17 14:30N 09°22' W 079°53'0 0.0
2018-Jun-17 14:00N 09°22' W 079°53'0 0.0
2018-Jun-17 13:30N 09°22' W 079°53'0 0.1
2018-Jun-17 13:00N 09°22' W 079°53'0 0.1
2018-Jun-17 12:31N 09°22' W 079°53'0 0.0
2018-Jun-17 11:59N 09°22' W 079°53'0 0.0
2018-Jun-17 11:30N 09°22' W 079°53'0 0.0
2018-Jun-17 11:00N 09°22' W 079°53'0 0.0
2018-Jun-17 10:31N 09°22' W 079°53'0 0.0
2018-Jun-17 10:00N 09°22' W 079°53'0 0.0
2018-Jun-17 09:30N 09°22' W 079°53'0 0.0
2018-Jun-17 09:00N 09°22' W 079°53'0 0.0
2018-Jun-17 08:30N 09°22' W 079°53'0 0.0
2018-Jun-17 08:01N 09°22' W 079°53'0 0.0
2018-Jun-17 07:31N 09°22' W 079°53'0 0.0
2018-Jun-17 07:00N 09°22' W 079°53'0 0.0
2018-Jun-17 06:30N 09°22' W 079°53'0 0.0
2018-Jun-17 06:00N 09°22' W 079°53'0 0.0
2018-Jun-17 05:31N 09°22' W 079°53'0 0.2
2018-Jun-17 05:01N 09°22' W 079°53'0 0.1
2018-Jun-17 04:30N 09°22' W 079°53'0 0.1
2018-Jun-17 04:00N 09°22' W 079°53'0 0.2
2018-Jun-17 03:31N 09°22' W 079°53'1 2.1
2018-Jun-17 03:00N 09°22' W 079°54'0 0.0
2018-Jun-17 02:30N 09°22' W 079°54'0 0.0
2018-Jun-17 02:00N 09°22' W 079°54'0 0.0
2018-Jun-17 01:28N 09°22' W 079°54'0 0.0
2018-Jun-17 01:01N 09°22' W 079°54'0 0.0
2018-Jun-17 00:30N 09°22' W 079°54'0 0.0
2018-Jun-16 23:55N 09°22' W 079°54'0 0.0
2018-Jun-16 23:25N 09°22' W 079°54'0 0.0
2018-Jun-16 23:00N 09°22' W 079°54'0 0.0
2018-Jun-16 22:31N 09°22' W 079°54'0 0.0
2018-Jun-16 22:00N 09°22' W 079°54'0 0.0
2018-Jun-16 21:30N 09°22' W 079°54'0 0.1
2018-Jun-16 21:00N 09°22' W 079°54'0 0.0
2018-Jun-16 20:29N 09°22' W 079°54'0 0.0
2018-Jun-16 20:00N 09°22' W 079°54'0 0.0
2018-Jun-16 19:30N 09°22' W 079°54'0 0.0
2018-Jun-16 19:00N 09°22' W 079°54'0 0.0
2018-Jun-16 18:30N 09°22' W 079°54'0 0.0
2018-Jun-16 18:00N 09°22' W 079°54'0 0.0
2018-Jun-16 17:30N 09°22' W 079°54'0 0.0
2018-Jun-16 17:00N 09°22' W 079°54'0 0.0
2018-Jun-16 16:30N 09°22' W 079°54'0 0.0
2018-Jun-16 16:01N 09°22' W 079°54'0 0.0
2018-Jun-16 15:30N 09°22' W 079°54'0 0.0
2018-Jun-16 15:01N 09°22' W 079°54'0 0.1
2018-Jun-16 14:30N 09°22' W 079°54'0 0.0
2018-Jun-16 14:00N 09°22' W 079°54'0 0.0
2018-Jun-16 13:31N 09°23' W 079°54'0 0.0
2018-Jun-16 13:00N 09°23' W 079°54'0 0.0
2018-Jun-16 12:30N 09°23' W 079°54'0 0.0
2018-Jun-16 12:00N 09°23' W 079°54'0 0.0
2018-Jun-16 11:30N 09°23' W 079°54'0 0.0
2018-Jun-16 11:00N 09°23' W 079°54'0 0.0
2018-Jun-16 10:31N 09°23' W 079°54'0 0.0
2018-Jun-16 09:55N 09°23' W 079°54'0 0.0
2018-Jun-16 09:29N 09°22' W 079°54'0 0.0
2018-Jun-16 09:00N 09°22' W 079°54'0 0.1
2018-Jun-16 08:30N 09°22' W 079°54'0 0.0
2018-Jun-16 08:00N 09°22' W 079°54'0 0.0
2018-Jun-16 07:30N 09°22' W 079°54'0 0.1
2018-Jun-16 07:00N 09°22' W 079°54'0 0.0
2018-Jun-16 06:30N 09°22' W 079°54'0 0.0
2018-Jun-16 06:01N 09°22' W 079°54'0 0.0
2018-Jun-16 05:30N 09°22' W 079°54'0 0.0
2018-Jun-16 05:00N 09°22' W 079°54'0 0.1
2018-Jun-16 04:30N 09°22' W 079°54'0 0.0
2018-Jun-16 04:00N 09°22' W 079°54'0 0.0
2018-Jun-16 03:30N 09°22' W 079°54'0 0.0
2018-Jun-16 03:01N 09°22' W 079°54'0 0.1
2018-Jun-16 02:29N 09°22' W 079°54'0 0.0
2018-Jun-16 02:01N 09°22' W 079°54'0 0.0
2018-Jun-16 01:30N 09°22' W 079°54'0 0.0
2018-Jun-16 01:00N 09°22' W 079°54'0 0.0
2018-Jun-16 00:30N 09°22' W 079°54'0 0.0
2018-Jun-16 00:00N 09°22' W 079°54'0 0.0
2018-Jun-15 23:30N 09°22' W 079°54'0 0.0
2018-Jun-15 23:00N 09°22' W 079°54'0 0.0
2018-Jun-15 22:30N 09°22' W 079°54'0 0.0
2018-Jun-15 22:01N 09°22' W 079°54'0 0.0
2018-Jun-15 21:30N 09°22' W 079°54'0 0.0
2018-Jun-15 21:00N 09°22' W 079°54'0 0.0
2018-Jun-15 20:30N 09°22' W 079°54'0 0.0
2018-Jun-15 20:00N 09°22' W 079°54'0 0.0
2018-Jun-15 19:30N 09°22' W 079°54'0 0.1
2018-Jun-15 19:00N 09°22' W 079°54'0 0.0
2018-Jun-15 18:30N 09°22' W 079°54'0 0.0
2018-Jun-15 18:00N 09°22' W 079°54'0 0.1
2018-Jun-15 17:31N 09°22' W 079°54'0 0.0
2018-Jun-15 17:01N 09°22' W 079°54'0 0.0
2018-Jun-15 16:30N 09°22' W 079°54'0 0.0
2018-Jun-15 16:00N 09°22' W 079°54'0 0.0
2018-Jun-15 15:30N 09°22' W 079°54'0 0.0
2018-Jun-15 15:00N 09°22' W 079°54'0 0.5
2018-Jun-15 14:30N 09°22' W 079°54'1 2.8
2018-Jun-15 14:00N 09°21' W 079°55'0 0.3
2018-Jun-15 13:30N 09°21' W 079°54'0 0.0
2018-Jun-15 13:00N 09°21' W 079°54'0 0.0
2018-Jun-15 12:29N 09°21' W 079°54'0 0.0
2018-Jun-15 12:00N 09°21' W 079°54'0 0.0
2018-Jun-15 11:30N 09°21' W 079°54'0 0.0
2018-Jun-15 11:00N 09°21' W 079°54'0 0.0
2018-Jun-15 10:30N 09°21' W 079°54'0 0.0
2018-Jun-15 10:00N 09°21' W 079°54'0 0.0
2018-Jun-15 09:30N 09°21' W 079°54'0 0.0
2018-Jun-15 09:00N 09°21' W 079°54'0 0.0
2018-Jun-15 08:30N 09°21' W 079°54'0 0.0
2018-Jun-15 08:00N 09°21' W 079°54'0 0.0
2018-Jun-15 07:30N 09°21' W 079°54'0 0.0
2018-Jun-15 07:00N 09°21' W 079°54'0 0.0
2018-Jun-15 06:31N 09°21' W 079°54'0 0.0
2018-Jun-15 06:00N 09°21' W 079°54'0 0.0
2018-Jun-15 05:30N 09°21' W 079°54'0 0.0
2018-Jun-15 05:00N 09°21' W 079°54'0 0.0
2018-Jun-15 04:30N 09°21' W 079°54'0 0.0
2018-Jun-15 04:01N 09°21' W 079°54'0 0.0
2018-Jun-15 03:30N 09°21' W 079°54'0 0.0
2018-Jun-15 03:01N 09°21' W 079°54'1 2.7
2018-Jun-15 02:31N 09°22' W 079°55'0 0.5
2018-Jun-15 02:00N 09°22' W 079°56'0 0.0
2018-Jun-15 01:30N 09°22' W 079°56'0 0.0
2018-Jun-15 01:00N 09°22' W 079°56'0 0.0
2018-Jun-15 00:30N 09°22' W 079°56'0 0.1
2018-Jun-15 00:00N 09°22' W 079°56'0 0.0
2018-Jun-14 23:30N 09°22' W 079°56'0 0.1
2018-Jun-14 23:00N 09°22' W 079°56'0 0.0
2018-Jun-14 22:30N 09°22' W 079°56'0 0.0
2018-Jun-14 22:00N 09°22' W 079°56'0 0.0
2018-Jun-14 21:30N 09°22' W 079°56'0 0.0
2018-Jun-14 21:00N 09°22' W 079°56'0 0.1
2018-Jun-14 20:31N 09°22' W 079°56'0 0.0
2018-Jun-14 19:58N 09°22' W 079°56'0 0.0
2018-Jun-14 19:30N 09°22' W 079°56'0 0.0
2018-Jun-14 19:01N 09°22' W 079°56'0 0.0
2018-Jun-14 18:31N 09°22' W 079°56'0 0.0
2018-Jun-14 18:00N 09°22' W 079°56'0 0.1
2018-Jun-14 17:30N 09°22' W 079°56'0 0.0
2018-Jun-14 17:00N 09°22' W 079°56'0 0.0
2018-Jun-14 16:31N 09°22' W 079°56'0 0.1
2018-Jun-14 16:00N 09°22' W 079°56'0 0.1
2018-Jun-14 15:31N 09°22' W 079°56'  

Dump ship's entire track history